sensor_id;sensor_type;location;lat;lon;timestamp;temperature;humidity
76607;DHT22;65498;50.916;4.698;2023-05-19T00:02:11;21.40;49.30
76607;DHT22;65498;50.916;4.698;2023-05-19T00:04:38;21.40;49.30
76607;DHT22;65498;50.916;4.698;2023-05-19T00:07:08;21.40;49.20
76607;DHT22;65498;50.916;4.698;2023-05-19T00:09:37;21.30;49.40
76607;DHT22;65498;50.916;4.698;2023-05-19T00:12:05;21.30;49.10
76607;DHT22;65498;50.916;4.698;2023-05-19T00:14:33;21.30;49.20
76607;DHT22;65498;50.916;4.698;2023-05-19T00:17:01;21.30;49.50
76607;DHT22;65498;50.916;4.698;2023-05-19T00:19:29;21.30;49.10
76607;DHT22;65498;50.916;4.698;2023-05-19T00:21:58;21.40;49.10
76607;DHT22;65498;50.916;4.698;2023-05-19T00:24:25;21.40;49.00
76607;DHT22;65498;50.916;4.698;2023-05-19T00:26:53;21.40;48.60
76607;DHT22;65498;50.916;4.698;2023-05-19T00:29:20;21.40;49.60
76607;DHT22;65498;50.916;4.698;2023-05-19T00:31:48;21.30;48.90
76607;DHT22;65498;50.916;4.698;2023-05-19T00:34:15;21.40;48.90
76607;DHT22;65498;50.916;4.698;2023-05-19T00:36:43;21.40;49.20
76607;DHT22;65498;50.916;4.698;2023-05-19T00:39:11;21.30;48.70
76607;DHT22;65498;50.916;4.698;2023-05-19T00:41:38;21.30;48.70
76607;DHT22;65498;50.916;4.698;2023-05-19T00:44:06;21.30;48.90
76607;DHT22;65498;50.916;4.698;2023-05-19T00:46:34;21.30;48.60
76607;DHT22;65498;50.916;4.698;2023-05-19T00:49:03;21.30;49.00
76607;DHT22;65498;50.916;4.698;2023-05-19T00:51:30;21.30;48.60
76607;DHT22;65498;50.916;4.698;2023-05-19T00:53:58;21.40;48.70
76607;DHT22;65498;50.916;4.698;2023-05-19T00:56:26;21.30;48.60
76607;DHT22;65498;50.916;4.698;2023-05-19T00:58:54;21.30;48.50
76607;DHT22;65498;50.916;4.698;2023-05-19T01:01:21;21.40;49.40
76607;DHT22;65498;50.916;4.698;2023-05-19T01:03:51;21.30;49.10
76607;DHT22;65498;50.916;4.698;2023-05-19T01:06:19;21.20;48.70
76607;DHT22;65498;50.916;4.698;2023-05-19T01:08:47;21.20;48.50
76607;DHT22;65498;50.916;4.698;2023-05-19T01:11:14;21.30;48.60
76607;DHT22;65498;50.916;4.698;2023-05-19T01:13:42;21.30;48.60
76607;DHT22;65498;50.916;4.698;2023-05-19T01:16:31;21.30;48.50
76607;DHT22;65498;50.916;4.698;2023-05-19T01:22:11;21.20;48.60
76607;DHT22;65498;50.916;4.698;2023-05-19T01:30:30;21.30;48.90
76607;DHT22;65498;50.916;4.698;2023-05-19T01:33:03;21.30;49.10
76607;DHT22;65498;50.916;4.698;2023-05-19T01:35:34;21.30;48.50
76607;DHT22;65498;50.916;4.698;2023-05-19T01:38:03;21.30;48.70
76607;DHT22;65498;50.916;4.698;2023-05-19T01:40:31;21.30;48.50
76607;DHT22;65498;50.916;4.698;2023-05-19T01:43:00;21.20;48.20
76607;DHT22;65498;50.916;4.698;2023-05-19T01:45:30;21.30;48.40
76607;DHT22;65498;50.916;4.698;2023-05-19T01:48:00;21.30;48.80
76607;DHT22;65498;50.916;4.698;2023-05-19T01:50:28;21.30;48.40
76607;DHT22;65498;50.916;4.698;2023-05-19T01:52:56;21.20;48.80
76607;DHT22;65498;50.916;4.698;2023-05-19T01:55:24;21.30;48.60
76607;DHT22;65498;50.916;4.698;2023-05-19T02:06:21;21.20;48.60
76607;DHT22;65498;50.916;4.698;2023-05-19T02:08:56;21.10;48.70
76607;DHT22;65498;50.916;4.698;2023-05-19T02:11:37;21.10;48.70
76607;DHT22;65498;50.916;4.698;2023-05-19T02:14:15;21.20;48.40
76607;DHT22;65498;50.916;4.698;2023-05-19T02:16:38;21.20;48.10
76607;DHT22;65498;50.916;4.698;2023-05-19T02:19:18;21.20;48.40
76607;DHT22;65498;50.916;4.698;2023-05-19T02:21:37;21.20;48.30
76607;DHT22;65498;50.916;4.698;2023-05-19T02:24:05;21.20;48.40
76607;DHT22;65498;50.916;4.698;2023-05-19T02:26:33;21.20;48.20
76607;DHT22;65498;50.916;4.698;2023-05-19T02:29:01;21.20;48.30
76607;DHT22;65498;50.916;4.698;2023-05-19T02:31:28;21.20;48.30
76607;DHT22;65498;50.916;4.698;2023-05-19T02:33:56;21.20;48.20
76607;DHT22;65498;50.916;4.698;2023-05-19T02:36:23;21.20;48.10
76607;DHT22;65498;50.916;4.698;2023-05-19T02:38:52;21.20;48.30
76607;DHT22;65498;50.916;4.698;2023-05-19T02:41:19;21.20;48.30
76607;DHT22;65498;50.916;4.698;2023-05-19T02:43:47;21.10;48.30
76607;DHT22;65498;50.916;4.698;2023-05-19T02:46:14;21.20;48.00
76607;DHT22;65498;50.916;4.698;2023-05-19T02:48:42;21.20;48.10
76607;DHT22;65498;50.916;4.698;2023-05-19T02:51:09;21.10;48.30
76607;DHT22;65498;50.916;4.698;2023-05-19T02:53:37;21.10;48.20
76607;DHT22;65498;50.916;4.698;2023-05-19T02:56:05;21.10;48.30
76607;DHT22;65498;50.916;4.698;2023-05-19T02:58:32;21.10;48.10
76607;DHT22;65498;50.916;4.698;2023-05-19T03:01:00;21.10;48.60
76607;DHT22;65498;50.916;4.698;2023-05-19T03:03:28;21.10;48.40
76607;DHT22;65498;50.916;4.698;2023-05-19T03:05:55;21.10;48.70
76607;DHT22;65498;50.916;4.698;2023-05-19T03:08:24;21.10;47.80
76607;DHT22;65498;50.916;4.698;2023-05-19T03:10:51;21.10;48.00
76607;DHT22;65498;50.916;4.698;2023-05-19T03:13:19;21.10;48.20
76607;DHT22;65498;50.916;4.698;2023-05-19T03:15:46;21.10;47.80
76607;DHT22;65498;50.916;4.698;2023-05-19T03:18:16;21.10;48.10
76607;DHT22;65498;50.916;4.698;2023-05-19T03:20:43;21.00;47.70
76607;DHT22;65498;50.916;4.698;2023-05-19T03:23:11;21.10;48.10
76607;DHT22;65498;50.916;4.698;2023-05-19T03:25:38;21.00;48.40
76607;DHT22;65498;50.916;4.698;2023-05-19T03:28:06;21.00;48.10
76607;DHT22;65498;50.916;4.698;2023-05-19T03:30:33;21.00;48.20
76607;DHT22;65498;50.916;4.698;2023-05-19T03:33:01;21.00;48.00
76607;DHT22;65498;50.916;4.698;2023-05-19T03:35:28;21.00;47.90
76607;DHT22;65498;50.916;4.698;2023-05-19T03:37:56;21.10;48.10
76607;DHT22;65498;50.916;4.698;2023-05-19T03:40:23;21.10;47.70
76607;DHT22;65498;50.916;4.698;2023-05-19T03:42:51;21.00;47.80
76607;DHT22;65498;50.916;4.698;2023-05-19T03:45:19;21.00;47.70
76607;DHT22;65498;50.916;4.698;2023-05-19T03:47:47;21.00;47.90
76607;DHT22;65498;50.916;4.698;2023-05-19T03:50:15;21.00;47.80
76607;DHT22;65498;50.916;4.698;2023-05-19T03:52:42;21.00;47.90
76607;DHT22;65498;50.916;4.698;2023-05-19T03:55:12;20.90;48.20
76607;DHT22;65498;50.916;4.698;2023-05-19T03:57:41;21.00;47.80
76607;DHT22;65498;50.916;4.698;2023-05-19T04:00:10;20.90;47.90
76607;DHT22;65498;50.916;4.698;2023-05-19T04:02:38;20.90;47.80
76607;DHT22;65498;50.916;4.698;2023-05-19T04:05:07;21.00;47.80
76607;DHT22;65498;50.916;4.698;2023-05-19T04:07:35;21.00;47.80
76607;DHT22;65498;50.916;4.698;2023-05-19T04:10:04;20.90;47.90
76607;DHT22;65498;50.916;4.698;2023-05-19T04:12:32;20.90;47.90
76607;DHT22;65498;50.916;4.698;2023-05-19T04:15:00;20.80;48.10
76607;DHT22;65498;50.916;4.698;2023-05-19T04:17:27;20.70;48.40
76607;DHT22;65498;50.916;4.698;2023-05-19T04:19:55;20.80;48.30
76607;DHT22;65498;50.916;4.698;2023-05-19T04:22:22;20.80;48.10
76607;DHT22;65498;50.916;4.698;2023-05-19T04:24:50;20.80;48.10
76607;DHT22;65498;50.916;4.698;2023-05-19T04:27:18;20.80;48.30
76607;DHT22;65498;50.916;4.698;2023-05-19T04:29:47;20.80;48.10
76607;DHT22;65498;50.916;4.698;2023-05-19T04:32:15;20.80;47.80
76607;DHT22;65498;50.916;4.698;2023-05-19T04:34:45;20.80;47.90
76607;DHT22;65498;50.916;4.698;2023-05-19T04:37:13;20.70;48.10
76607;DHT22;65498;50.916;4.698;2023-05-19T04:39:45;20.70;48.10
76607;DHT22;65498;50.916;4.698;2023-05-19T04:42:13;20.60;48.40
76607;DHT22;65498;50.916;4.698;2023-05-19T04:44:42;20.60;48.30
76607;DHT22;65498;50.916;4.698;2023-05-19T04:47:10;20.60;48.40
76607;DHT22;65498;50.916;4.698;2023-05-19T04:49:38;20.60;48.90
76607;DHT22;65498;50.916;4.698;2023-05-19T04:52:07;20.60;48.40
76607;DHT22;65498;50.916;4.698;2023-05-19T04:54:38;20.60;48.00
76607;DHT22;65498;50.916;4.698;2023-05-19T04:57:07;20.60;48.00
76607;DHT22;65498;50.916;4.698;2023-05-19T04:59:35;20.70;47.80
76607;DHT22;65498;50.916;4.698;2023-05-19T05:02:03;20.70;48.10
76607;DHT22;65498;50.916;4.698;2023-05-19T05:04:30;20.70;47.90
76607;DHT22;65498;50.916;4.698;2023-05-19T05:06:59;20.70;47.90
76607;DHT22;65498;50.916;4.698;2023-05-19T05:09:26;20.70;47.90
76607;DHT22;65498;50.916;4.698;2023-05-19T05:11:54;20.70;47.80
76607;DHT22;65498;50.916;4.698;2023-05-19T05:14:22;20.70;48.00
76607;DHT22;65498;50.916;4.698;2023-05-19T05:16:50;20.70;47.70
76607;DHT22;65498;50.916;4.698;2023-05-19T05:19:19;20.70;47.70
76607;DHT22;65498;50.916;4.698;2023-05-19T05:21:48;20.80;47.70
76607;DHT22;65498;50.916;4.698;2023-05-19T05:24:16;20.80;47.80
76607;DHT22;65498;50.916;4.698;2023-05-19T05:26:44;20.80;47.60
76607;DHT22;65498;50.916;4.698;2023-05-19T05:29:12;20.80;47.50
76607;DHT22;65498;50.916;4.698;2023-05-19T05:31:39;20.90;47.30
76607;DHT22;65498;50.916;4.698;2023-05-19T05:34:07;20.90;47.40
76607;DHT22;65498;50.916;4.698;2023-05-19T05:36:34;20.90;47.00
76607;DHT22;65498;50.916;4.698;2023-05-19T05:39:02;20.90;47.20
76607;DHT22;65498;50.916;4.698;2023-05-19T05:41:31;20.90;47.20
76607;DHT22;65498;50.916;4.698;2023-05-19T05:44:01;21.00;47.10
76607;DHT22;65498;50.916;4.698;2023-05-19T05:46:29;20.90;47.40
76607;DHT22;65498;50.916;4.698;2023-05-19T05:48:57;20.90;47.90
76607;DHT22;65498;50.916;4.698;2023-05-19T05:51:25;20.90;46.80
76607;DHT22;65498;50.916;4.698;2023-05-19T05:53:54;21.00;47.30
76607;DHT22;65498;50.916;4.698;2023-05-19T05:56:22;21.00;46.80
76607;DHT22;65498;50.916;4.698;2023-05-19T05:58:49;21.00;47.10
76607;DHT22;65498;50.916;4.698;2023-05-19T06:01:17;21.00;47.10
76607;DHT22;65498;50.916;4.698;2023-05-19T06:03:46;21.00;46.90
76607;DHT22;65498;50.916;4.698;2023-05-19T06:06:14;21.00;46.90
76607;DHT22;65498;50.916;4.698;2023-05-19T06:08:41;21.00;47.00
76607;DHT22;65498;50.916;4.698;2023-05-19T06:11:09;21.00;47.20
76607;DHT22;65498;50.916;4.698;2023-05-19T06:13:37;21.00;47.30
76607;DHT22;65498;50.916;4.698;2023-05-19T06:16:07;21.00;47.10
76607;DHT22;65498;50.916;4.698;2023-05-19T06:18:35;21.00;47.40
76607;DHT22;65498;50.916;4.698;2023-05-19T06:21:02;21.00;47.50
76607;DHT22;65498;50.916;4.698;2023-05-19T06:23:30;21.00;47.50
76607;DHT22;65498;50.916;4.698;2023-05-19T06:25:58;21.00;47.80
76607;DHT22;65498;50.916;4.698;2023-05-19T06:28:25;21.00;47.70
76607;DHT22;65498;50.916;4.698;2023-05-19T06:30:53;21.00;48.30
76607;DHT22;65498;50.916;4.698;2023-05-19T06:33:20;21.00;48.10
76607;DHT22;65498;50.916;4.698;2023-05-19T06:35:48;21.00;48.10
76607;DHT22;65498;50.916;4.698;2023-05-19T06:38:15;21.00;48.00
76607;DHT22;65498;50.916;4.698;2023-05-19T06:40:43;21.00;48.10
76607;DHT22;65498;50.916;4.698;2023-05-19T06:43:10;21.00;48.10
76607;DHT22;65498;50.916;4.698;2023-05-19T06:45:38;21.00;47.80
76607;DHT22;65498;50.916;4.698;2023-05-19T06:48:06;21.00;47.40
76607;DHT22;65498;50.916;4.698;2023-05-19T06:50:33;21.10;48.00
76607;DHT22;65498;50.916;4.698;2023-05-19T06:53:01;21.00;47.50
76607;DHT22;65498;50.916;4.698;2023-05-19T06:55:28;21.10;47.30
76607;DHT22;65498;50.916;4.698;2023-05-19T06:57:56;21.10;47.30
76607;DHT22;65498;50.916;4.698;2023-05-19T07:00:23;21.10;47.30
76607;DHT22;65498;50.916;4.698;2023-05-19T07:02:51;21.10;47.40
76607;DHT22;65498;50.916;4.698;2023-05-19T07:05:18;21.10;47.80
76607;DHT22;65498;50.916;4.698;2023-05-19T07:07:46;21.00;48.10
76607;DHT22;65498;50.916;4.698;2023-05-19T07:10:14;21.00;49.20
76607;DHT22;65498;50.916;4.698;2023-05-19T07:12:41;21.30;49.00
76607;DHT22;65498;50.916;4.698;2023-05-19T07:15:09;21.50;48.90
76607;DHT22;65498;50.916;4.698;2023-05-19T07:17:37;21.60;48.40
76607;DHT22;65498;50.916;4.698;2023-05-19T07:20:05;21.70;48.30
76607;DHT22;65498;50.916;4.698;2023-05-19T07:22:35;21.70;48.20
76607;DHT22;65498;50.916;4.698;2023-05-19T07:25:04;21.80;48.40
76607;DHT22;65498;50.916;4.698;2023-05-19T07:27:32;21.60;48.10
76607;DHT22;65498;50.916;4.698;2023-05-19T07:29:59;21.60;48.50
76607;DHT22;65498;50.916;4.698;2023-05-19T07:32:27;21.60;49.10
76607;DHT22;65498;50.916;4.698;2023-05-19T07:34:54;21.60;49.10
76607;DHT22;65498;50.916;4.698;2023-05-19T07:37:22;21.60;49.30
76607;DHT22;65498;50.916;4.698;2023-05-19T07:39:49;21.60;49.60
76607;DHT22;65498;50.916;4.698;2023-05-19T07:42:17;21.60;49.50
76607;DHT22;65498;50.916;4.698;2023-05-19T07:44:44;21.60;49.70
76607;DHT22;65498;50.916;4.698;2023-05-19T07:47:12;21.60;49.60
76607;DHT22;65498;50.916;4.698;2023-05-19T07:49:40;21.60;49.40
76607;DHT22;65498;50.916;4.698;2023-05-19T07:52:07;21.60;49.20
76607;DHT22;65498;50.916;4.698;2023-05-19T07:54:35;21.60;49.30
76607;DHT22;65498;50.916;4.698;2023-05-19T07:57:02;21.60;49.30
76607;DHT22;65498;50.916;4.698;2023-05-19T07:59:30;21.70;49.20
76607;DHT22;65498;50.916;4.698;2023-05-19T08:01:58;21.70;49.30
76607;DHT22;65498;50.916;4.698;2023-05-19T08:04:25;21.70;49.30
76607;DHT22;65498;50.916;4.698;2023-05-19T08:06:53;21.80;49.00
76607;DHT22;65498;50.916;4.698;2023-05-19T08:09:20;21.80;49.00
76607;DHT22;65498;50.916;4.698;2023-05-19T08:11:48;21.80;48.90
76607;DHT22;65498;50.916;4.698;2023-05-19T08:14:16;21.80;48.80
76607;DHT22;65498;50.916;4.698;2023-05-19T08:16:44;21.90;48.60
76607;DHT22;65498;50.916;4.698;2023-05-19T08:19:12;21.90;48.90
76607;DHT22;65498;50.916;4.698;2023-05-19T08:21:40;21.90;48.90
76607;DHT22;65498;50.916;4.698;2023-05-19T08:24:08;21.80;48.90
76607;DHT22;65498;50.916;4.698;2023-05-19T08:26:35;21.90;49.10
76607;DHT22;65498;50.916;4.698;2023-05-19T08:29:03;21.80;48.70
76607;DHT22;65498;50.916;4.698;2023-05-19T08:31:31;21.90;48.70
76607;DHT22;65498;50.916;4.698;2023-05-19T08:33:58;21.80;49.20
76607;DHT22;65498;50.916;4.698;2023-05-19T08:36:26;21.90;49.00
76607;DHT22;65498;50.916;4.698;2023-05-19T08:38:54;21.90;49.20
76607;DHT22;65498;50.916;4.698;2023-05-19T08:41:22;21.80;49.10
76607;DHT22;65498;50.916;4.698;2023-05-19T08:43:50;21.90;49.10
76607;DHT22;65498;50.916;4.698;2023-05-19T08:46:18;21.90;48.90
76607;DHT22;65498;50.916;4.698;2023-05-19T08:48:48;21.90;49.20
76607;DHT22;65498;50.916;4.698;2023-05-19T08:51:40;21.90;49.20
76607;DHT22;65498;50.916;4.698;2023-05-19T08:54:13;21.90;49.20
76607;DHT22;65498;50.916;4.698;2023-05-19T08:56:44;21.80;49.40
76607;DHT22;65498;50.916;4.698;2023-05-19T08:59:15;21.80;49.30
76607;DHT22;65498;50.916;4.698;2023-05-19T09:01:44;21.80;49.90
76607;DHT22;65498;50.916;4.698;2023-05-19T09:04:12;21.80;49.30
76607;DHT22;65498;50.916;4.698;2023-05-19T09:06:40;21.80;49.70
76607;DHT22;65498;50.916;4.698;2023-05-19T09:09:10;21.70;49.30
76607;DHT22;65498;50.916;4.698;2023-05-19T09:11:37;21.70;49.30
76607;DHT22;65498;50.916;4.698;2023-05-19T09:14:05;21.70;49.90
76607;DHT22;65498;50.916;4.698;2023-05-19T09:16:32;21.80;50.10
76607;DHT22;65498;50.916;4.698;2023-05-19T09:19:00;21.80;50.00
76607;DHT22;65498;50.916;4.698;2023-05-19T09:21:29;21.80;49.90
76607;DHT22;65498;50.916;4.698;2023-05-19T09:23:57;21.80;50.30
76607;DHT22;65498;50.916;4.698;2023-05-19T09:26:34;21.80;50.40
76607;DHT22;65498;50.916;4.698;2023-05-19T09:28:57;21.70;49.70
76607;DHT22;65498;50.916;4.698;2023-05-19T09:31:26;21.70;50.10
76607;DHT22;65498;50.916;4.698;2023-05-19T09:33:55;21.70;50.70
76607;DHT22;65498;50.916;4.698;2023-05-19T09:36:23;21.70;51.20
76607;DHT22;65498;50.916;4.698;2023-05-19T09:38:51;21.60;50.80
76607;DHT22;65498;50.916;4.698;2023-05-19T09:41:19;21.70;50.90
76607;DHT22;65498;50.916;4.698;2023-05-19T09:43:54;21.70;51.20
76607;DHT22;65498;50.916;4.698;2023-05-19T09:46:25;21.70;50.80
76607;DHT22;65498;50.916;4.698;2023-05-19T09:48:57;21.70;50.60
76607;DHT22;65498;50.916;4.698;2023-05-19T09:51:24;21.70;50.60
76607;DHT22;65498;50.916;4.698;2023-05-19T09:53:52;21.70;50.80
76607;DHT22;65498;50.916;4.698;2023-05-19T09:56:20;21.70;50.70
76607;DHT22;65498;50.916;4.698;2023-05-19T09:58:49;21.70;50.70
76607;DHT22;65498;50.916;4.698;2023-05-19T10:01:17;21.70;50.10
76607;DHT22;65498;50.916;4.698;2023-05-19T10:03:45;21.60;50.50
76607;DHT22;65498;50.916;4.698;2023-05-19T10:06:13;21.60;50.10
76607;DHT22;65498;50.916;4.698;2023-05-19T10:08:41;21.60;51.70
76607;DHT22;65498;50.916;4.698;2023-05-19T10:11:11;21.50;50.60
76607;DHT22;65498;50.916;4.698;2023-05-19T10:13:38;21.50;51.50
76607;DHT22;65498;50.916;4.698;2023-05-19T10:16:07;21.50;51.40
76607;DHT22;65498;50.916;4.698;2023-05-19T10:18:37;21.50;50.90
76607;DHT22;65498;50.916;4.698;2023-05-19T10:21:06;21.50;50.50
76607;DHT22;65498;50.916;4.698;2023-05-19T10:23:34;21.50;51.50
76607;DHT22;65498;50.916;4.698;2023-05-19T10:26:03;21.50;50.90
76607;DHT22;65498;50.916;4.698;2023-05-19T10:28:37;21.50;51.10
76607;DHT22;65498;50.916;4.698;2023-05-19T10:31:08;21.50;51.50
76607;DHT22;65498;50.916;4.698;2023-05-19T10:36:43;21.50;50.40
76607;DHT22;65498;50.916;4.698;2023-05-19T10:39:38;21.50;50.90
76607;DHT22;65498;50.916;4.698;2023-05-19T10:41:50;21.50;51.70
76607;DHT22;65498;50.916;4.698;2023-05-19T10:47:00;21.40;52.10
76607;DHT22;65498;50.916;4.698;2023-05-19T10:49:28;21.50;52.20
76607;DHT22;65498;50.916;4.698;2023-05-19T10:51:57;21.40;51.90
76607;DHT22;65498;50.916;4.698;2023-05-19T10:54:41;21.40;52.10
76607;DHT22;65498;50.916;4.698;2023-05-19T10:57:14;21.40;52.30
76607;DHT22;65498;50.916;4.698;2023-05-19T10:59:43;21.40;52.10
76607;DHT22;65498;50.916;4.698;2023-05-19T11:05:05;21.40;52.30
76607;DHT22;65498;50.916;4.698;2023-05-19T11:07:27;21.50;52.30
76607;DHT22;65498;50.916;4.698;2023-05-19T11:09:55;21.40;51.80
76607;DHT22;65498;50.916;4.698;2023-05-19T11:12:23;21.50;52.50
76607;DHT22;65498;50.916;4.698;2023-05-19T11:14:54;21.40;51.90
76607;DHT22;65498;50.916;4.698;2023-05-19T11:17:23;21.50;52.30
76607;DHT22;65498;50.916;4.698;2023-05-19T11:19:56;21.50;52.40
76607;DHT22;65498;50.916;4.698;2023-05-19T11:22:26;21.50;52.40
76607;DHT22;65498;50.916;4.698;2023-05-19T11:24:54;21.50;52.40
76607;DHT22;65498;50.916;4.698;2023-05-19T11:30:09;21.50;52.30
76607;DHT22;65498;50.916;4.698;2023-05-19T11:32:39;21.50;52.20
76607;DHT22;65498;50.916;4.698;2023-05-19T11:35:09;21.50;52.30
76607;DHT22;65498;50.916;4.698;2023-05-19T11:37:36;21.50;52.40
76607;DHT22;65498;50.916;4.698;2023-05-19T11:40:06;21.50;52.30
76607;DHT22;65498;50.916;4.698;2023-05-19T11:42:35;21.50;52.10
76607;DHT22;65498;50.916;4.698;2023-05-19T11:45:04;21.50;52.00
76607;DHT22;65498;50.916;4.698;2023-05-19T11:47:31;21.50;52.20
76607;DHT22;65498;50.916;4.698;2023-05-19T11:49:59;21.50;52.10
76607;DHT22;65498;50.916;4.698;2023-05-19T11:52:27;21.50;52.10
76607;DHT22;65498;50.916;4.698;2023-05-19T11:54:54;21.50;52.20
76607;DHT22;65498;50.916;4.698;2023-05-19T11:57:23;21.50;51.90
76607;DHT22;65498;50.916;4.698;2023-05-19T11:59:51;21.50;52.20
76607;DHT22;65498;50.916;4.698;2023-05-19T12:02:24;21.50;52.20
76607;DHT22;65498;50.916;4.698;2023-05-19T12:04:53;21.50;52.10
76607;DHT22;65498;50.916;4.698;2023-05-19T12:07:24;21.60;52.00
76607;DHT22;65498;50.916;4.698;2023-05-19T12:09:53;21.60;52.00
76607;DHT22;65498;50.916;4.698;2023-05-19T12:12:22;21.70;52.00
76607;DHT22;65498;50.916;4.698;2023-05-19T12:14:50;21.70;52.10
76607;DHT22;65498;50.916;4.698;2023-05-19T12:17:20;21.70;51.90
76607;DHT22;65498;50.916;4.698;2023-05-19T12:19:49;21.70;52.00
76607;DHT22;65498;50.916;4.698;2023-05-19T12:22:18;21.70;51.90
76607;DHT22;65498;50.916;4.698;2023-05-19T12:24:46;21.70;51.90
76607;DHT22;65498;50.916;4.698;2023-05-19T12:27:19;21.70;52.00
76607;DHT22;65498;50.916;4.698;2023-05-19T12:29:56;21.70;51.90
76607;DHT22;65498;50.916;4.698;2023-05-19T12:32:24;21.70;52.00
76607;DHT22;65498;50.916;4.698;2023-05-19T12:34:52;21.70;52.00
76607;DHT22;65498;50.916;4.698;2023-05-19T12:37:23;21.70;52.20
76607;DHT22;65498;50.916;4.698;2023-05-19T12:39:50;21.70;52.10
76607;DHT22;65498;50.916;4.698;2023-05-19T12:42:18;21.70;52.20
76607;DHT22;65498;50.916;4.698;2023-05-19T12:44:47;21.70;51.60
76607;DHT22;65498;50.916;4.698;2023-05-19T12:47:18;21.70;51.80
76607;DHT22;65498;50.916;4.698;2023-05-19T12:49:55;21.80;51.90
76607;DHT22;65498;50.916;4.698;2023-05-19T12:52:23;21.80;51.80
76607;DHT22;65498;50.916;4.698;2023-05-19T12:55:05;21.80;51.80
76607;DHT22;65498;50.916;4.698;2023-05-19T12:57:37;21.80;51.70
76607;DHT22;65498;50.916;4.698;2023-05-19T13:00:07;21.80;51.70
76607;DHT22;65498;50.916;4.698;2023-05-19T13:05:30;21.80;51.70
76607;DHT22;65498;50.916;4.698;2023-05-19T13:08:01;21.80;51.50
76607;DHT22;65498;50.916;4.698;2023-05-19T13:10:29;21.80;51.30
76607;DHT22;65498;50.916;4.698;2023-05-19T13:12:57;21.90;51.20
76607;DHT22;65498;50.916;4.698;2023-05-19T13:15:27;22.00;51.10
76607;DHT22;65498;50.916;4.698;2023-05-19T13:18:00;22.10;51.00
76607;DHT22;65498;50.916;4.698;2023-05-19T13:20:28;22.00;51.20
76607;DHT22;65498;50.916;4.698;2023-05-19T13:22:56;22.00;51.20
76607;DHT22;65498;50.916;4.698;2023-05-19T13:25:24;21.90;50.90
76607;DHT22;65498;50.916;4.698;2023-05-19T13:27:52;21.90;50.80
76607;DHT22;65498;50.916;4.698;2023-05-19T13:30:24;22.00;50.60
76607;DHT22;65498;50.916;4.698;2023-05-19T13:32:52;22.10;50.30
76607;DHT22;65498;50.916;4.698;2023-05-19T13:35:19;22.10;49.80
76607;DHT22;65498;50.916;4.698;2023-05-19T13:37:47;22.20;48.40
76607;DHT22;65498;50.916;4.698;2023-05-19T13:40:16;22.30;47.70
76607;DHT22;65498;50.916;4.698;2023-05-19T13:42:44;22.30;47.20
76607;DHT22;65498;50.916;4.698;2023-05-19T13:45:12;22.40;46.90
76607;DHT22;65498;50.916;4.698;2023-05-19T13:47:40;22.40;46.50
76607;DHT22;65498;50.916;4.698;2023-05-19T13:50:07;22.50;46.30
76607;DHT22;65498;50.916;4.698;2023-05-19T13:52:35;22.50;46.20
76607;DHT22;65498;50.916;4.698;2023-05-19T13:55:03;22.50;46.20
76607;DHT22;65498;50.916;4.698;2023-05-19T13:57:31;22.50;46.00
76607;DHT22;65498;50.916;4.698;2023-05-19T13:59:59;22.60;45.60
76607;DHT22;65498;50.916;4.698;2023-05-19T14:02:26;22.60;45.20
76607;DHT22;65498;50.916;4.698;2023-05-19T14:04:55;22.60;45.00
76607;DHT22;65498;50.916;4.698;2023-05-19T14:07:22;22.60;44.70
76607;DHT22;65498;50.916;4.698;2023-05-19T14:09:50;22.60;44.90
76607;DHT22;65498;50.916;4.698;2023-05-19T14:12:18;22.60;44.60
76607;DHT22;65498;50.916;4.698;2023-05-19T14:14:45;22.60;44.60
76607;DHT22;65498;50.916;4.698;2023-05-19T14:17:14;22.60;44.60
76607;DHT22;65498;50.916;4.698;2023-05-19T14:19:41;22.60;44.70
76607;DHT22;65498;50.916;4.698;2023-05-19T14:22:09;22.60;44.80
76607;DHT22;65498;50.916;4.698;2023-05-19T14:24:38;22.50;44.60
76607;DHT22;65498;50.916;4.698;2023-05-19T14:27:07;22.60;44.60
76607;DHT22;65498;50.916;4.698;2023-05-19T14:29:34;22.60;44.50
76607;DHT22;65498;50.916;4.698;2023-05-19T14:32:02;22.60;44.40
76607;DHT22;65498;50.916;4.698;2023-05-19T14:34:31;22.60;44.30
76607;DHT22;65498;50.916;4.698;2023-05-19T14:37:00;22.60;44.20
76607;DHT22;65498;50.916;4.698;2023-05-19T14:39:29;22.60;44.00
76607;DHT22;65498;50.916;4.698;2023-05-19T14:41:57;22.70;43.70
76607;DHT22;65498;50.916;4.698;2023-05-19T14:44:29;22.70;43.90
76607;DHT22;65498;50.916;4.698;2023-05-19T14:46:59;22.70;44.30
76607;DHT22;65498;50.916;4.698;2023-05-19T14:49:26;22.70;44.70
76607;DHT22;65498;50.916;4.698;2023-05-19T14:51:54;22.70;44.90
76607;DHT22;65498;50.916;4.698;2023-05-19T14:54:22;22.70;45.20
76607;DHT22;65498;50.916;4.698;2023-05-19T14:56:49;22.70;45.40
76607;DHT22;65498;50.916;4.698;2023-05-19T14:59:17;22.60;45.50
76607;DHT22;65498;50.916;4.698;2023-05-19T15:01:44;22.60;45.80
76607;DHT22;65498;50.916;4.698;2023-05-19T15:04:12;22.60;45.80
76607;DHT22;65498;50.916;4.698;2023-05-19T15:06:39;22.60;46.00
76607;DHT22;65498;50.916;4.698;2023-05-19T15:09:07;22.60;46.20
76607;DHT22;65498;50.916;4.698;2023-05-19T15:11:34;22.60;46.20
76607;DHT22;65498;50.916;4.698;2023-05-19T15:14:02;22.60;46.30
76607;DHT22;65498;50.916;4.698;2023-05-19T15:16:29;22.70;46.50
76607;DHT22;65498;50.916;4.698;2023-05-19T15:18:57;22.60;46.60
76607;DHT22;65498;50.916;4.698;2023-05-19T15:21:24;22.70;46.80
76607;DHT22;65498;50.916;4.698;2023-05-19T15:23:52;22.60;46.70
76607;DHT22;65498;50.916;4.698;2023-05-19T15:26:19;22.60;46.90
76607;DHT22;65498;50.916;4.698;2023-05-19T15:28:47;22.60;47.00
76607;DHT22;65498;50.916;4.698;2023-05-19T15:31:15;22.60;47.00
76607;DHT22;65498;50.916;4.698;2023-05-19T15:33:42;22.60;47.70
76607;DHT22;65498;50.916;4.698;2023-05-19T15:36:10;22.60;47.70
76607;DHT22;65498;50.916;4.698;2023-05-19T15:38:39;22.60;47.30
76607;DHT22;65498;50.916;4.698;2023-05-19T15:41:08;22.60;47.40
76607;DHT22;65498;50.916;4.698;2023-05-19T15:43:35;22.70;47.40
76607;DHT22;65498;50.916;4.698;2023-05-19T15:46:04;22.70;47.40
76607;DHT22;65498;50.916;4.698;2023-05-19T15:48:31;22.60;47.50
76607;DHT22;65498;50.916;4.698;2023-05-19T15:51:00;22.60;47.50
76607;DHT22;65498;50.916;4.698;2023-05-19T15:53:27;22.70;47.50
76607;DHT22;65498;50.916;4.698;2023-05-19T15:55:55;22.70;47.60
76607;DHT22;65498;50.916;4.698;2023-05-19T15:58:25;22.70;47.70
76607;DHT22;65498;50.916;4.698;2023-05-19T16:00:53;22.70;47.80
76607;DHT22;65498;50.916;4.698;2023-05-19T16:03:20;22.70;47.80
76607;DHT22;65498;50.916;4.698;2023-05-19T16:05:48;22.70;47.80
76607;DHT22;65498;50.916;4.698;2023-05-19T16:08:15;22.70;47.90
76607;DHT22;65498;50.916;4.698;2023-05-19T16:10:43;22.70;47.90